Time;durP1;ratioP1;P1;durP2;ratioP2;P2;SDS_P1;SDS_P2;PMS_P1;PMS_P2;Temp;Humidity;BMP_temperature;BMP_pressure;BME280_temperature;BME280_humidity;BME280_pressure;Samples;Min_cycle;Max_cycle;Signal;HPM_P1;HPM_P2
2023/01/21 00:02:11;;;;;;;4.03;3.13;;;;;;;19.02;35.30;102783.09;5025266;28;20047;-76
2023/01/21 00:04:37;;;;;;;4.22;2.95;;;;;;;19.00;35.53;102780.59;5038704;28;20030;-76
2023/01/21 00:07:04;;;;;;;4.95;3.35;;;;;;;19.11;35.21;102790.28;5040487;28;20140;-77
2023/01/21 00:09:29;;;;;;;4.20;3.30;;;;;;;19.14;35.19;102797.94;5038431;28;20037;-76
2023/01/21 00:11:56;;;;;;;4.90;3.40;;;;;;;19.27;34.76;102793.31;5045739;28;20041;-76
2023/01/21 00:14:21;;;;;;;4.43;3.78;;;;;;;19.16;34.91;102788.09;5040397;28;20495;-76
2023/01/21 00:16:47;;;;;;;4.65;3.20;;;;;;;19.13;35.24;102792.78;5035857;28;20103;-76
2023/01/21 00:19:12;;;;;;;5.32;3.60;;;;;;;19.13;35.15;102804.19;5036720;28;20107;-76
2023/01/21 00:21:38;;;;;;;4.70;3.13;;;;;;;19.35;34.83;102812.97;5037633;28;20041;-76
2023/01/21 00:24:04;;;;;;;4.13;2.85;;;;;;;19.19;34.84;102805.47;5036776;28;20406;-76
2023/01/21 00:26:29;;;;;;;4.07;3.20;;;;;;;19.32;34.89;102816.69;5037976;28;20278;-76
2023/01/21 00:28:55;;;;;;;3.80;2.90;;;;;;;19.10;35.23;102815.00;5021348;28;20038;-76
2023/01/21 00:31:20;;;;;;;5.43;3.58;;;;;;;19.07;35.46;102811.78;5041784;28;20041;-76
2023/01/21 00:33:47;;;;;;;3.88;2.67;;;;;;;19.19;35.20;102816.03;5037730;28;20083;-76
2023/01/21 00:36:17;;;;;;;4.63;3.00;;;;;;;19.17;35.05;102821.44;5037069;28;20045;-76
2023/01/21 00:38:44;;;;;;;3.97;3.10;;;;;;;19.10;35.31;102816.81;5015976;28;20053;-76
2023/01/21 00:41:12;;;;;;;3.83;3.22;;;;;;;19.20;35.01;102818.56;5039869;28;20593;-76
2023/01/21 00:43:39;;;;;;;4.00;2.80;;;;;;;19.12;34.98;102807.81;5024565;28;20772;-76
2023/01/21 00:46:05;;;;;;;4.18;2.97;;;;;;;19.31;34.84;102825.59;5029542;28;20037;-76
2023/01/21 00:48:31;;;;;;;3.47;2.83;;;;;;;19.18;34.99;102833.69;5042926;28;20041;-76
2023/01/21 00:51:00;;;;;;;4.18;3.17;;;;;;;19.20;34.90;102823.00;5042899;28;20099;-76
2023/01/21 00:53:33;;;;;;;5.95;3.33;;;;;;;19.09;35.33;102838.91;5039225;28;20060;-76
2023/01/21 00:56:05;;;;;;;4.47;3.20;;;;;;;19.12;35.30;102828.94;5045074;28;20076;-76
2023/01/21 00:58:31;;;;;;;4.68;3.45;;;;;;;19.18;35.00;102832.84;5040784;28;20045;-76
2023/01/21 01:01:18;;;;;;;4.18;3.20;;;;;;;19.13;35.21;102835.88;5034652;28;20044;-76
2023/01/21 01:03:44;;;;;;;3.83;3.08;;;;;;;19.20;35.16;102844.97;5037862;28;20175;-76
2023/01/21 01:06:13;;;;;;;4.45;3.33;;;;;;;19.15;35.24;102843.69;5040746;28;20047;-76
2023/01/21 01:08:40;;;;;;;3.43;3.13;;;;;;;19.13;35.07;102843.81;5039842;28;20044;-76
2023/01/21 01:11:06;;;;;;;3.88;3.08;;;;;;;19.15;35.27;102843.69;5018472;28;20108;-76
2023/01/21 01:13:33;;;;;;;3.60;3.10;;;;;;;19.19;35.24;102842.44;5037984;28;20518;-76
2023/01/21 01:16:00;;;;;;;4.30;3.42;;;;;;;19.09;35.26;102845.03;5037296;28;20546;-76
2023/01/21 01:18:27;;;;;;;4.20;3.30;;;;;;;19.15;34.98;102836.59;5036881;28;20111;-76
2023/01/21 01:20:52;;;;;;;4.10;2.88;;;;;;;19.05;35.06;102842.78;5029454;28;20129;-76
2023/01/21 01:23:18;;;;;;;4.43;3.35;;;;;;;18.98;35.53;102852.97;5037980;28;20434;-77
2023/01/21 01:25:53;;;;;;;3.03;2.65;;;;;;;19.04;35.12;102844.56;5038721;28;20087;-76
2023/01/21 01:28:19;;;;;;;3.50;3.00;;;;;;;19.07;35.20;102860.16;5037818;28;20052;-76
2023/01/21 01:30:44;;;;;;;3.67;3.03;;;;;;;18.98;35.41;102858.25;5032442;28;20048;-76
2023/01/21 01:33:10;;;;;;;3.70;2.72;;;;;;;19.02;35.35;102854.41;5037482;28;20135;-77
2023/01/21 01:35:35;;;;;;;3.05;2.58;;;;;;;18.94;35.54;102862.94;5030640;28;20091;-77
2023/01/21 01:38:06;;;;;;;3.83;2.92;;;;;;;19.10;35.17;102862.53;5036006;28;20040;-77
2023/01/21 01:40:33;;;;;;;3.55;2.92;;;;;;;18.99;35.33;102859.94;5033624;28;20048;-76
2023/01/21 01:42:58;;;;;;;3.60;2.92;;;;;;;18.92;35.32;102851.69;5036457;28;20060;-76
2023/01/21 01:45:24;;;;;;;3.38;3.05;;;;;;;18.98;35.46;102864.38;5033380;28;20060;-77
2023/01/21 01:47:58;;;;;;;4.65;2.90;;;;;;;19.04;35.42;102870.13;5039941;28;20048;-77
2023/01/21 01:50:34;;;;;;;3.70;2.85;;;;;;;18.98;35.41;102871.47;5021995;28;20064;-77
2023/01/21 01:53:00;;;;;;;3.13;2.80;;;;;;;18.96;35.31;102878.66;5001750;28;20033;-77
2023/01/21 01:55:32;;;;;;;3.58;2.70;;;;;;;18.92;35.43;102874.59;5006655;28;20045;-77
2023/01/21 01:57:58;;;;;;;3.85;2.90;;;;;;;18.79;35.64;102880.03;5018697;28;20037;-77
2023/01/21 02:00:25;;;;;;;3.88;2.97;;;;;;;18.88;35.56;102873.19;5013621;28;20069;-77
2023/01/21 02:05:41;;;;;;;3.15;2.83;;;;;;;18.87;35.72;102874.16;5015111;28;20029;-76
2023/01/21 02:08:07;;;;;;;4.30;3.28;;;;;;;18.81;35.56;102879.91;5016823;28;20064;-77
2023/01/21 02:10:33;;;;;;;3.80;3.08;;;;;;;18.88;35.65;102896.94;5016088;28;20040;-77
2023/01/21 02:13:00;;;;;;;3.15;2.72;;;;;;;18.89;35.40;102899.47;5014475;28;20769;-77
2023/01/21 02:15:48;;;;;;;3.60;2.75;;;;;;;18.82;35.54;102892.97;5017477;28;20601;-77
2023/01/21 02:18:42;;;;;;;3.25;2.70;;;;;;;19.01;35.20;102906.38;4998704;28;20045;-77
2023/01/21 02:21:29;;;;;;;3.60;2.97;;;;;;;18.83;35.60;102902.56;5014172;28;21047;-77
2023/01/21 02:24:19;;;;;;;4.53;3.28;;;;;;;18.79;35.62;102905.59;5014788;28;20684;-77
2023/01/21 02:26:59;;;;;;;4.43;3.10;;;;;;;18.89;35.40;102915.28;5013959;28;21960;-77
2023/01/21 02:30:00;;;;;;;4.18;3.00;;;;;;;18.83;35.32;102912.28;5021346;28;20473;-76
2023/01/21 02:32:57;;;;;;;3.70;2.85;;;;;;;18.82;35.40;102922.00;5016312;28;20056;-76
2023/01/21 02:35:30;;;;;;;3.30;3.00;;;;;;;18.75;35.59;102927.91;5011528;28;20247;-77
2023/01/21 02:38:05;;;;;;;2.85;2.30;;;;;;;18.82;35.42;102927.28;5008572;28;20116;-77
2023/01/21 02:41:03;;;;;;;3.50;2.78;;;;;;;18.76;35.62;102929.59;5013231;28;20055;-76
2023/01/21 02:44:06;;;;;;;3.13;2.60;;;;;;;18.71;35.66;102929.97;5013274;28;20050;-77
2023/01/21 02:46:54;;;;;;;3.55;2.90;;;;;;;18.60;35.60;102924.66;5020199;28;20761;-77
2023/01/21 02:49:30;;;;;;;3.28;2.88;;;;;;;18.80;35.43;102925.75;5024129;28;20054;-77
2023/01/21 02:51:56;;;;;;;4.85;3.08;;;;;;;18.65;35.64;102928.63;5042505;28;20044;-76
2023/01/21 02:54:40;;;;;;;3.72;2.63;;;;;;;18.78;35.44;102943.50;5043733;28;20688;-77
2023/01/21 02:57:13;;;;;;;3.28;2.83;;;;;;;18.67;35.64;102934.66;5035357;28;20036;-77
2023/01/21 02:59:43;;;;;;;3.83;3.22;;;;;;;18.70;35.54;102952.03;5043606;28;20132;-76
2023/01/21 03:02:22;;;;;;;;;;;;;;;18.72;35.58;102947.47;5041068;28;20029;-77
2023/01/21 03:05:13;;;;;;;2.97;2.70;;;;;;;18.69;35.68;102945.09;5050173;28;20011;-77
2023/01/21 03:07:50;;;;;;;3.75;3.20;;;;;;;18.63;35.73;102951.66;5039238;28;20068;-77
2023/01/21 03:10:31;;;;;;;3.58;2.63;;;;;;;18.72;35.66;102958.03;5039952;28;20044;-76
2023/01/21 03:13:00;;;;;;;3.60;2.67;;;;;;;18.81;35.31;102965.22;5040782;28;20120;-76
2023/01/21 03:18:21;;;;;;;3.30;2.95;;;;;;;18.61;35.61;102955.34;5040366;28;20041;-76
2023/01/21 03:20:54;;;;;;;4.32;3.28;;;;;;;18.63;35.59;102948.19;5039217;28;20057;-76
2023/01/21 03:23:25;;;;;;;3.55;2.80;;;;;;;18.66;35.39;102961.97;5037689;28;20037;-77
2023/01/21 03:25:51;;;;;;;3.35;3.03;;;;;;;18.65;35.71;102962.09;5039909;28;20078;-77
2023/01/21 03:28:22;;;;;;;3.30;2.85;;;;;;;18.61;35.68;102965.91;5041110;28;20658;-77
2023/01/21 03:30:58;;;;;;;4.25;3.47;;;;;;;18.61;35.66;102971.19;5036593;28;20083;-76
2023/01/21 03:33:26;;;;;;;3.92;2.85;;;;;;;18.56;35.90;102970.72;5040291;28;20041;-76
2023/01/21 03:35:54;;;;;;;3.35;3.00;;;;;;;18.55;35.77;102967.22;5039928;28;20037;-77
2023/01/21 03:38:25;;;;;;;3.97;3.47;;;;;;;18.51;35.93;102965.81;5038273;28;20056;-77
2023/01/21 03:41:13;;;;;;;5.25;2.83;;;;;;;18.51;35.78;102965.81;5028267;28;20382;-76
2023/01/21 03:43:38;;;;;;;3.53;3.00;;;;;;;18.45;35.77;102963.63;5022133;28;20505;-76
2023/01/21 03:46:21;;;;;;;4.32;3.08;;;;;;;18.62;35.55;102963.16;5039231;28;20029;-76
2023/01/21 03:48:52;;;;;;;3.20;2.70;;;;;;;18.59;35.50;102968.66;5039371;28;20273;-77
2023/01/21 03:51:23;;;;;;;3.38;2.72;;;;;;;18.67;35.44;102973.38;5038024;28;20049;-76
2023/01/21 03:53:56;;;;;;;4.50;2.95;;;;;;;18.46;35.88;102978.50;5039186;28;20040;-76
2023/01/21 03:56:23;;;;;;;4.00;2.88;;;;;;;18.48;35.92;102976.56;5021612;28;20037;-76
2023/01/21 03:58:49;;;;;;;2.95;2.70;;;;;;;18.60;35.65;102980.06;5039299;28;20590;-77
2023/01/21 04:01:14;;;;;;;3.28;2.70;;;;;;;18.51;35.80;102976.34;5037166;28;20095;-76
2023/01/21 04:03:42;;;;;;;3.63;2.80;;;;;;;18.48;35.73;102973.09;5039915;28;20036;-76
2023/01/21 04:06:13;;;;;;;3.42;2.80;;;;;;;18.47;35.76;102976.69;5037561;28;20055;-76
2023/01/21 04:08:38;;;;;;;3.20;2.80;;;;;;;18.47;35.78;102985.44;5038215;28;20169;-76
2023/01/21 04:11:04;;;;;;;4.10;3.05;;;;;;;18.51;35.81;102988.72;5037195;28;20538;-77
2023/01/21 04:13:30;;;;;;;3.97;3.15;;;;;;;18.45;35.92;102981.25;5021266;28;20033;-76
2023/01/21 04:15:55;;;;;;;3.95;3.20;;;;;;;18.48;35.82;102983.63;5037566;28;20050;-77
2023/01/21 04:18:21;;;;;;;3.15;2.75;;;;;;;18.49;35.67;102985.31;5038068;28;20053;-76
2023/01/21 04:20:46;;;;;;;3.15;2.65;;;;;;;18.22;35.55;102922.38;5034946;28;20037;-76
2023/01/21 04:23:11;;;;;;;3.42;2.65;;;;;;;18.58;35.42;102971.44;5038041;28;20041;-76
2023/01/21 04:25:37;;;;;;;2.95;2.53;;;;;;;18.57;35.47;102975.88;5038324;28;20041;-76
2023/01/21 04:28:03;;;;;;;3.85;3.13;;;;;;;18.45;35.84;102968.06;5040033;28;20037;-76
2023/01/21 04:30:28;;;;;;;3.70;2.90;;;;;;;18.52;35.57;102961.38;5038957;28;20510;-76
2023/01/21 04:32:54;;;;;;;3.80;3.20;;;;;;;18.46;35.87;102970.56;5038414;28;20548;-76
2023/01/21 04:35:19;;;;;;;3.55;3.13;;;;;;;18.55;35.48;102976.94;5038182;28;20044;-76
2023/01/21 04:37:45;;;;;;;4.03;3.03;;;;;;;18.67;35.42;102984.78;5037872;28;20033;-76
2023/01/21 04:40:11;;;;;;;3.50;2.60;;;;;;;18.92;34.64;102978.41;5033086;28;20040;-76
2023/01/21 04:42:36;;;;;;;3.20;2.63;;;;;;;19.09;34.46;102979.72;5038208;28;20068;-76
2023/01/21 04:45:02;;;;;;;3.08;2.53;;;;;;;19.16;34.37;102974.75;5037133;28;20033;-76
2023/01/21 04:47:28;;;;;;;3.58;2.88;;;;;;;19.38;34.04;103001.13;5039443;28;20119;-77
2023/01/21 04:49:53;;;;;;;3.15;2.63;;;;;;;19.31;34.12;103002.59;5018129;28;20056;-77
2023/01/21 04:52:19;;;;;;;3.33;2.58;;;;;;;19.34;34.25;103015.53;5034904;28;20029;-77
2023/01/21 04:54:44;;;;;;;3.72;3.00;;;;;;;19.36;34.03;103018.06;5036912;28;20410;-77
2023/01/21 04:57:10;;;;;;;3.47;2.80;;;;;;;19.25;34.39;103025.06;5036769;28;20052;-77
2023/01/21 04:59:36;;;;;;;3.42;2.80;;;;;;;19.27;34.32;103033.69;5037191;28;20044;-77
2023/01/21 05:02:02;;;;;;;3.53;2.70;;;;;;;19.25;34.34;103035.63;5033537;28;20056;-77
2023/01/21 05:04:27;;;;;;;3.15;2.53;;;;;;;19.21;34.34;103023.63;5040968;28;20124;-77
2023/01/21 05:06:53;;;;;;;3.28;2.75;;;;;;;19.15;34.45;103034.66;5033117;28;20040;-77
2023/01/21 05:09:18;;;;;;;3.42;2.70;;;;;;;19.19;34.34;103036.09;5039127;28;20044;-76
2023/01/21 05:11:44;;;;;;;3.05;2.75;;;;;;;19.17;34.46;103029.25;5040121;28;20076;-76
2023/01/21 05:14:09;;;;;;;3.70;2.90;;;;;;;19.16;34.52;103032.88;5041256;28;20037;-77
2023/01/21 05:16:35;;;;;;;3.75;2.80;;;;;;;19.15;34.53;103034.66;5038521;28;20041;-77
2023/01/21 05:19:00;;;;;;;3.17;2.38;;;;;;;19.20;34.42;103045.69;5037875;28;20041;-76
2023/01/21 05:21:26;;;;;;;3.47;3.08;;;;;;;19.14;34.43;103043.56;5038570;28;20122;-77
2023/01/21 05:23:51;;;;;;;3.45;3.10;;;;;;;19.08;34.58;103038.75;5038802;28;20098;-76
2023/01/21 05:26:18;;;;;;;3.42;2.95;;;;;;;18.98;34.79;103051.00;5039162;28;20036;-77
2023/01/21 05:28:43;;;;;;;3.30;2.80;;;;;;;19.04;34.64;103047.06;5037985;28;20049;-77
2023/01/21 05:31:09;;;;;;;3.03;2.67;;;;;;;19.02;34.61;103044.50;5030583;28;20041;-76
2023/01/21 05:33:35;;;;;;;3.17;2.63;;;;;;;18.93;34.66;103039.97;5025833;28;20041;-77
2023/01/21 05:36:01;;;;;;;3.35;2.65;;;;;;;19.01;34.65;103046.31;5041804;28;20025;-77
2023/01/21 05:38:28;;;;;;;3.00;2.60;;;;;;;18.85;34.86;103043.22;5024976;28;20048;-77
2023/01/21 05:40:58;;;;;;;3.17;2.70;;;;;;;18.92;34.79;103059.41;5040298;28;20041;-76
2023/01/21 05:43:23;;;;;;;;;;;;;;;18.83;34.89;103066.22;5036727;28;20068;-76
2023/01/21 05:45:49;;;;;;;3.47;2.70;;;;;;;18.67;35.09;103047.25;5039056;28;20271;-76
2023/01/21 05:48:14;;;;;;;3.05;2.75;;;;;;;18.79;34.93;103071.88;5020107;28;20052;-76
2023/01/21 05:50:40;;;;;;;3.05;2.75;;;;;;;18.74;35.06;103079.31;5037239;28;20060;-76
2023/01/21 05:53:05;;;;;;;3.65;2.88;;;;;;;18.77;34.95;103079.91;5036411;28;20068;-77
2023/01/21 05:55:31;;;;;;;2.67;2.40;;;;;;;18.80;35.08;103089.41;5036085;28;20029;-76
2023/01/21 05:57:56;;;;;;;2.78;2.53;;;;;;;18.71;35.23;103088.31;5035198;28;20049;-76
2023/01/21 06:00:22;;;;;;;3.38;2.75;;;;;;;18.71;35.12;103089.16;5015611;28;20037;-76
2023/01/21 06:02:47;;;;;;;3.95;2.70;;;;;;;18.72;34.98;103092.63;5037777;28;20642;-76
2023/01/21 06:05:13;;;;;;;3.47;2.80;;;;;;;18.64;35.21;103098.47;5036526;28;20501;-76
2023/01/21 06:07:38;;;;;;;3.35;2.55;;;;;;;18.52;35.42;103077.44;5037604;28;20041;-76
2023/01/21 06:10:05;;;;;;;3.05;2.50;;;;;;;18.62;35.40;103092.44;5036056;28;20037;-76
2023/01/21 06:12:30;;;;;;;3.58;2.63;;;;;;;18.66;35.30;103098.34;5038818;28;20541;-76
2023/01/21 06:14:56;;;;;;;3.45;2.50;;;;;;;18.60;35.35;103096.16;5038240;28;20037;-76
2023/01/21 06:17:21;;;;;;;3.15;2.78;;;;;;;18.64;35.28;103103.75;5020549;28;20040;-76
2023/01/21 06:19:47;;;;;;;2.88;2.38;;;;;;;18.67;35.28;103106.19;5032768;28;20032;-76
2023/01/21 06:22:14;;;;;;;3.40;2.72;;;;;;;18.54;35.26;103100.13;5043418;28;20541;-76
2023/01/21 06:24:40;;;;;;;3.00;2.53;;;;;;;18.53;35.28;103109.00;5038834;28;20040;-76
2023/01/21 06:27:06;;;;;;;3.50;2.40;;;;;;;18.53;35.14;103094.97;5040329;28;20115;-76
2023/01/21 06:29:31;;;;;;;3.72;3.17;;;;;;;19.63;33.72;103105.72;5021350;28;20680;-76
2023/01/21 06:31:57;;;;;;;3.13;2.55;;;;;;;20.94;31.66;103110.66;5038596;28;20517;-76
2023/01/21 06:34:22;;;;;;;3.13;2.65;;;;;;;21.80;30.51;103119.88;5040719;28;20044;-77
2023/01/21 06:36:48;;;;;;;3.08;2.45;;;;;;;22.22;29.75;103128.44;5041583;28;20042;-76
2023/01/21 06:39:14;;;;;;;2.90;2.30;;;;;;;22.23;29.83;103132.78;5022678;28;20068;-76
2023/01/21 06:41:39;;;;;;;2.92;2.42;;;;;;;22.07;29.87;103131.66;5034603;28;20404;-76
2023/01/21 06:44:05;;;;;;;3.00;2.58;;;;;;;21.90;30.16;103130.50;5024546;28;20045;-76
2023/01/21 06:46:31;;;;;;;3.17;2.53;;;;;;;21.84;30.38;103137.19;5043360;28;20040;-76
2023/01/21 06:48:56;;;;;;;3.05;2.47;;;;;;;21.76;30.83;103142.38;5040969;28;20059;-76
2023/01/21 06:51:22;;;;;;;3.00;2.60;;;;;;;21.61;30.79;103151.69;5044990;28;20053;-76
2023/01/21 06:53:47;;;;;;;2.83;2.33;;;;;;;21.48;31.16;103149.25;5040573;28;20041;-76
2023/01/21 06:56:13;;;;;;;2.50;2.30;;;;;;;21.40;31.08;103157.88;5025911;28;20040;-76
2023/01/21 06:58:38;;;;;;;3.13;2.40;;;;;;;21.32;31.53;103159.50;5026104;28;20048;-76
2023/01/21 07:01:04;;;;;;;2.80;2.50;;;;;;;21.22;31.85;103164.75;5026987;28;20053;-76
2023/01/21 07:03:29;;;;;;;2.40;2.20;;;;;;;21.13;31.60;103166.38;5044886;28;20127;-76
2023/01/21 07:05:55;;;;;;;2.47;2.28;;;;;;;21.06;31.96;103175.00;5039912;28;20048;-76
2023/01/21 07:08:20;;;;;;;2.70;2.42;;;;;;;20.94;31.97;103179.50;5021009;28;20045;-76
2023/01/21 07:10:46;;;;;;;3.13;2.47;;;;;;;20.87;32.04;103170.44;5024559;28;20063;-76
2023/01/21 07:13:11;;;;;;;2.80;2.42;;;;;;;20.85;32.13;103180.31;5037367;28;20045;-76
2023/01/21 07:15:37;;;;;;;3.60;2.60;;;;;;;20.86;32.27;103176.69;5040119;28;20029;-76
2023/01/21 07:18:02;;;;;;;3.22;2.75;;;;;;;20.80;32.19;103183.31;5039137;28;20538;-76
2023/01/21 07:20:28;;;;;;;2.53;2.33;;;;;;;20.84;32.33;103183.09;5041608;28;20557;-76
2023/01/21 07:22:53;;;;;;;2.83;2.40;;;;;;;20.66;32.29;103151.91;5039284;28;20049;-76
2023/01/21 07:25:19;;;;;;;2.83;2.50;;;;;;;21.06;31.84;103185.59;5039228;28;20408;-76
2023/01/21 07:27:44;;;;;;;2.97;2.60;;;;;;;21.13;31.83;103190.22;5036998;28;20041;-77
2023/01/21 07:30:16;;;;;;;2.97;2.67;;;;;;;21.16;32.01;103206.81;5040275;28;20045;-77
2023/01/21 07:32:42;;;;;;;3.47;2.75;;;;;;;21.15;31.96;103205.97;5040306;28;20494;-77
2023/01/21 07:35:08;;;;;;;2.80;2.47;;;;;;;21.12;31.69;103214.19;5039516;28;20087;-77
2023/01/21 07:37:33;;;;;;;2.47;2.15;;;;;;;21.03;32.11;103222.94;5039653;28;20037;-77
2023/01/21 07:39:59;;;;;;;3.00;2.70;;;;;;;21.01;32.26;103224.88;5022687;28;20036;-77
2023/01/21 07:42:24;;;;;;;3.08;2.65;;;;;;;20.93;32.00;103228.16;5041701;28;20498;-77
2023/01/21 07:44:50;;;;;;;4.10;2.35;;;;;;;20.92;32.21;103228.28;5027467;28;20041;-77
2023/01/21 07:47:15;;;;;;;3.05;2.67;;;;;;;20.82;32.18;103225.56;5035429;28;20044;-77
2023/01/21 07:49:41;;;;;;;3.22;2.53;;;;;;;20.75;32.32;103216.47;5041899;28;20045;-77
2023/01/21 07:52:06;;;;;;;4.45;2.90;;;;;;;20.78;32.57;103229.44;5041785;28;20040;-77
2023/01/21 07:54:32;;;;;;;3.10;2.58;;;;;;;20.68;32.60;103218.78;5039949;28;20068;-77
2023/01/21 07:56:57;;;;;;;2.80;2.30;;;;;;;20.80;32.48;103243.41;5039150;28;20525;-77
2023/01/21 07:59:23;;;;;;;3.60;2.40;;;;;;;20.76;32.38;103239.31;5037221;28;20044;-77
2023/01/21 08:01:48;;;;;;;3.25;2.63;;;;;;;20.57;32.77;103241.81;5038226;28;20183;-77
2023/01/21 08:04:14;;;;;;;3.00;2.53;;;;;;;20.35;32.91;103240.06;5024770;28;20731;-77
2023/01/21 08:06:40;;;;;;;3.53;2.63;;;;;;;20.45;33.05;103255.09;5040736;28;20049;-78
2023/01/21 08:09:06;;;;;;;3.58;2.72;;;;;;;20.87;32.26;103257.81;5037687;28;20036;-78
2023/01/21 08:11:32;;;;;;;2.90;2.42;;;;;;;21.60;31.34;103250.75;5033303;28;20462;-78
2023/01/21 08:13:57;;;;;;;2.80;2.33;;;;;;;22.03;30.55;103264.56;5018879;28;20124;-78
2023/01/21 08:16:23;;;;;;;4.00;2.47;;;;;;;22.15;30.76;103260.03;5039641;28;20049;-78
2023/01/21 08:18:48;;;;;;;2.60;2.40;;;;;;;22.16;30.33;103260.88;5038295;28;20044;-78
2023/01/21 08:21:14;;;;;;;3.05;2.25;;;;;;;22.06;30.46;103268.78;5038107;28;20044;-78
2023/01/21 08:23:39;;;;;;;5.20;3.92;;;;;;;21.73;30.96;103264.63;5042163;28;20037;-78
2023/01/21 08:26:06;;;;;;;3.38;2.70;;;;;;;21.71;30.88;103262.09;5035001;28;22223;-78
2023/01/21 08:28:31;;;;;;;3.40;2.50;;;;;;;21.69;31.17;103273.81;5034290;28;20037;-78
2023/01/21 08:31:10;;;;;;;3.40;2.97;;;;;;;21.55;31.42;103272.38;5019501;28;20083;-78
2023/01/21 08:33:36;;;;;;;3.30;2.70;;;;;;;21.39;31.72;103272.00;5032710;28;20065;-81
2023/01/21 08:36:04;;;;;;;2.97;2.60;;;;;;;21.34;31.60;103272.38;5034893;28;20121;-79
2023/01/21 08:38:30;;;;;;;3.55;2.80;;;;;;;21.17;31.94;103259.69;5037634;28;20047;-78
2023/01/21 08:40:57;;;;;;;2.97;2.63;;;;;;;21.13;31.76;103260.91;5037526;28;20040;-80
2023/01/21 08:43:23;;;;;;;3.42;2.90;;;;;;;21.10;32.13;103266.47;5036957;28;20119;-79
2023/01/21 08:45:49;;;;;;;3.30;2.88;;;;;;;21.06;32.25;103284.44;5032198;28;20060;-78
2023/01/21 08:48:14;;;;;;;4.07;2.53;;;;;;;20.99;32.25;103285.06;5034611;28;20040;-79
2023/01/21 08:50:40;;;;;;;4.43;3.00;;;;;;;20.84;32.53;103287.22;5038952;28;20045;-79
2023/01/21 08:53:05;;;;;;;2.97;2.60;;;;;;;20.82;32.62;103291.78;5033305;28;20812;-79
2023/01/21 08:55:31;;;;;;;3.80;2.78;;;;;;;20.74;32.70;103294.22;5037148;28;20041;-77
2023/01/21 08:57:57;;;;;;;3.03;2.70;;;;;;;20.44;32.96;103281.69;5038566;28;20033;-78
2023/01/21 09:00:23;;;;;;;2.60;2.40;;;;;;;20.52;33.00;103297.78;5036117;28;20442;-76
2023/01/21 09:02:51;;;;;;;3.58;2.85;;;;;;;20.47;33.02;103302.63;5038307;28;20076;-78
2023/01/21 09:05:16;;;;;;;3.35;2.75;;;;;;;20.42;33.22;103302.13;5039006;28;20483;-77
2023/01/21 09:07:44;;;;;;;3.45;2.80;;;;;;;20.31;33.36;103302.16;5025992;28;20072;-77
2023/01/21 09:10:10;;;;;;;3.40;3.10;;;;;;;20.15;33.55;103299.88;5040079;28;20044;-77
2023/01/21 09:12:37;;;;;;;3.30;2.63;;;;;;;20.10;33.52;103310.81;5038943;28;20076;-77
2023/01/21 09:15:03;;;;;;;3.10;2.80;;;;;;;20.10;33.67;103304.69;5039145;28;20055;-77
2023/01/21 09:17:29;;;;;;;3.72;2.95;;;;;;;20.14;33.54;103311.44;5040362;28;20032;-77
2023/01/21 09:19:54;;;;;;;3.47;2.50;;;;;;;20.80;32.44;103314.88;5037351;28;20431;-77
2023/01/21 09:22:20;;;;;;;2.78;2.42;;;;;;;21.30;31.64;103313.38;5041289;28;20053;-77
2023/01/21 09:24:45;;;;;;;2.97;2.65;;;;;;;21.59;31.18;103320.66;5035854;28;20044;-79
2023/01/21 09:27:11;;;;;;;3.63;2.83;;;;;;;21.60;31.17;103317.88;5035866;28;20052;-78
2023/01/21 09:29:36;;;;;;;3.00;2.70;;;;;;;21.48;31.18;103320.72;5035375;28;20040;-77
2023/01/21 09:32:04;;;;;;;3.83;2.70;;;;;;;21.48;31.22;103316.25;5032269;28;20043;-77
2023/01/21 09:34:30;;;;;;;3.50;2.53;;;;;;;21.27;31.55;103313.63;5035989;28;20048;-78
2023/01/21 09:36:55;;;;;;;3.65;2.80;;;;;;;21.26;31.72;103314.59;5037719;28;20021;-77
2023/01/21 09:39:21;;;;;;;3.80;2.78;;;;;;;21.11;31.93;103326.44;5039957;28;20560;-74
2023/01/21 10:00:38;;;;;;;7.43;2.80;;;;;;;20.39;33.41;103342.91;5087310;27;20509;-71
2023/01/21 10:03:27;;;;;;;8.10;4.55;;;;;;;19.60;34.36;103360.56;5073607;28;20036;-68
2023/01/21 10:05:59;;;;;;;7.43;4.85;;;;;;;19.32;34.53;103361.75;5072535;28;20137;-67
2023/01/21 10:08:33;;;;;;;7.57;5.03;;;;;;;19.15;34.79;103363.97;5075285;28;20787;-67
2023/01/21 10:11:31;;;;;;;6.45;5.30;;;;;;;19.19;34.84;103368.06;5071390;28;20159;-69
2023/01/21 10:13:59;;;;;;;5.00;3.95;;;;;;;19.27;34.82;103363.06;5027263;28;20048;-69
2023/01/21 10:16:53;;;;;;;4.20;3.80;;;;;;;19.78;34.06;103360.09;5070193;28;20051;-68
2023/01/21 10:19:27;;;;;;;4.25;3.58;;;;;;;20.73;32.44;103361.38;5073409;28;20078;-70
2023/01/21 10:21:56;;;;;;;4.45;3.40;;;;;;;21.22;31.55;103355.56;5073812;28;20036;-69
2023/01/21 10:24:25;;;;;;;4.93;3.40;;;;;;;21.57;31.13;103352.63;5069072;28;20859;-68
2023/01/21 10:26:52;;;;;;;6.13;3.28;;;;;;;21.55;31.29;103362.50;5072653;28;20059;-69
2023/01/21 10:29:22;;;;;;;3.83;3.00;;;;;;;21.57;31.08;103363.22;5074258;28;20024;-68
2023/01/21 10:32:06;;;;;;;;;;;;;;;21.52;31.25;103360.09;5079785;28;20039;-68
2023/01/21 10:34:36;;;;;;;3.85;3.10;;;;;;;21.36;31.44;103360.56;5073093;28;19917;-68
2023/01/21 10:37:17;;;;;;;3.88;3.20;;;;;;;21.21;31.64;103364.47;5071417;28;20050;-68
2023/01/21 10:40:16;;;;;;;3.33;2.80;;;;;;;21.06;32.07;103366.56;5074232;28;20151;-69
2023/01/21 10:42:53;;;;;;;4.13;3.00;;;;;;;20.90;32.23;103363.50;5067808;28;20633;-68
2023/01/21 10:45:32;;;;;;;3.47;2.92;;;;;;;20.55;32.77;103363.72;5068696;28;20044;-68
2023/01/21 10:48:26;;;;;;;3.38;2.80;;;;;;;20.60;32.92;103361.53;5070208;28;20036;-69
2023/01/21 10:51:00;;;;;;;4.53;2.95;;;;;;;20.43;33.25;103360.22;5067982;28;20129;-69
2023/01/21 10:53:58;;;;;;;4.03;3.15;;;;;;;20.31;33.53;103368.31;5072240;28;20383;-69
2023/01/21 10:56:42;;;;;;;4.53;2.65;;;;;;;20.14;33.82;103366.97;5071160;28;20051;-69
2023/01/21 10:59:15;;;;;;;4.60;3.25;;;;;;;19.92;34.17;103366.00;5070251;28;20071;-68
2023/01/21 11:01:49;;;;;;;3.42;2.60;;;;;;;19.92;34.18;103373.06;5059913;28;20037;-69
2023/01/21 11:04:22;;;;;;;3.42;2.88;;;;;;;19.80;34.50;103371.41;5058959;28;20374;-68
2023/01/21 11:07:00;;;;;;;3.78;2.53;;;;;;;19.66;34.62;103375.09;5059170;28;20044;-68
2023/01/21 11:09:30;;;;;;;3.63;2.90;;;;;;;19.64;34.79;103376.19;5056127;28;20478;-69
2023/01/21 11:11:56;;;;;;;;;;;;;;;19.77;34.44;103374.28;5056278;28;20089;-68
2023/01/21 11:14:24;;;;;;;3.35;2.70;;;;;;;19.77;34.35;103369.00;5059215;28;20382;-68
2023/01/21 11:16:51;;;;;;;4.95;3.22;;;;;;;19.77;34.34;103367.19;5057024;28;20115;-69
2023/01/21 11:19:20;;;;;;;3.05;2.75;;;;;;;19.67;34.56;103376.78;5056352;28;20068;-67
2023/01/21 11:22:03;;;;;;;3.03;2.70;;;;;;;19.77;34.46;103380.41;5059593;28;20123;-67
2023/01/21 11:24:30;;;;;;;3.38;3.00;;;;;;;20.28;33.59;103377.28;5057236;28;20866;-67
2023/01/21 11:26:59;;;;;;;3.20;2.90;;;;;;;21.31;31.83;103370.69;5054800;28;20040;-67
2023/01/21 11:29:36;;;;;;;3.58;3.05;;;;;;;21.69;31.11;103367.47;5051995;28;20033;-67
2023/01/21 11:32:09;;;;;;;3.03;2.70;;;;;;;21.57;31.33;103365.03;5057157;28;20048;-67
2023/01/21 11:34:35;;;;;;;2.75;2.45;;;;;;;21.71;30.98;103377.94;5059201;28;20115;-67
2023/01/21 11:37:03;;;;;;;2.72;2.40;;;;;;;21.42;31.71;103378.59;5056639;28;20064;-68
2023/01/21 11:39:35;;;;;;;2.75;2.45;;;;;;;20.93;32.52;103370.34;5055855;28;20044;-67
2023/01/21 11:42:10;;;;;;;3.63;2.60;;;;;;;20.90;32.60;103375.91;5060987;28;20071;-67
2023/01/21 11:44:50;;;;;;;2.90;2.60;;;;;;;20.84;32.71;103374.59;5055507;28;20047;-67
2023/01/21 11:47:27;;;;;;;3.05;2.60;;;;;;;20.61;33.11;103381.75;5056474;28;20075;-67
2023/01/21 11:49:53;;;;;;;2.85;2.55;;;;;;;20.61;33.10;103378.25;5053814;28;20031;-67
2023/01/21 11:52:19;;;;;;;3.20;2.17;;;;;;;20.54;33.17;103374.44;5058688;28;20029;-67
2023/01/21 11:54:46;;;;;;;2.75;2.53;;;;;;;20.47;33.25;103371.44;5055753;28;20173;-67
2023/01/21 11:57:25;;;;;;;3.08;2.70;;;;;;;20.40;33.54;103383.44;5059095;28;20557;-67
2023/01/21 11:59:56;;;;;;;2.77;2.57;;;;;;;20.28;33.78;103374.66;5055810;28;20107;-67
2023/01/21 12:02:34;;;;;;;2.80;2.50;;;;;;;20.30;33.64;103383.34;5054005;28;20454;-67